sensor_id;sensor_type;location;lat;lon;timestamp;P1;durP1;ratioP1;P2;durP2;ratioP2
10489;SDS011;35569;48.402;10.670;2023-01-29T00:00:46;3.33;;;3.23;;
10489;SDS011;35569;48.402;10.670;2023-01-29T00:01:41;3.90;;;3.70;;
10489;SDS011;35569;48.402;10.670;2023-01-29T00:02:34;3.50;;;3.40;;
10489;SDS011;35569;48.402;10.670;2023-01-29T00:03:31;3.70;;;3.60;;
10489;SDS011;35569;48.402;10.670;2023-01-29T00:04:24;3.63;;;3.53;;
10489;SDS011;35569;48.402;10.670;2023-01-29T00:05:19;3.80;;;3.70;;
10489;SDS011;35569;48.402;10.670;2023-01-29T00:06:19;3.47;;;3.37;;
10489;SDS011;35569;48.402;10.670;2023-01-29T00:07:14;3.70;;;3.60;;
10489;SDS011;35569;48.402;10.670;2023-01-29T00:08:07;3.40;;;3.30;;
10489;SDS011;35569;48.402;10.670;2023-01-29T00:09:02;3.70;;;3.60;;
10489;SDS011;35569;48.402;10.670;2023-01-29T00:09:54;3.70;;;3.60;;
10489;SDS011;35569;48.402;10.670;2023-01-29T00:10:50;3.90;;;3.53;;
10489;SDS011;35569;48.402;10.670;2023-01-29T00:11:42;3.40;;;3.30;;
10489;SDS011;35569;48.402;10.670;2023-01-29T00:12:38;3.07;;;2.97;;
10489;SDS011;35569;48.402;10.670;2023-01-29T00:13:30;4.15;;;4.05;;
10489;SDS011;35569;48.402;10.670;2023-01-29T00:14:26;4.35;;;4.25;;
10489;SDS011;35569;48.402;10.670;2023-01-29T00:15:18;3.80;;;3.70;;
10489;SDS011;35569;48.402;10.670;2023-01-29T00:16:14;4.00;;;3.90;;
10489;SDS011;35569;48.402;10.670;2023-01-29T00:17:06;3.50;;;3.40;;
10489;SDS011;35569;48.402;10.670;2023-01-29T00:18:02;3.77;;;3.67;;
10489;SDS011;35569;48.402;10.670;2023-01-29T00:18:57;3.80;;;3.60;;
10489;SDS011;35569;48.402;10.670;2023-01-29T00:19:52;3.60;;;3.50;;
10489;SDS011;35569;48.402;10.670;2023-01-29T00:20:45;3.70;;;3.50;;
10489;SDS011;35569;48.402;10.670;2023-01-29T00:21:40;3.55;;;3.45;;
10489;SDS011;35569;48.402;10.670;2023-01-29T00:22:33;3.53;;;3.43;;
10489;SDS011;35569;48.402;10.670;2023-01-29T00:23:28;3.50;;;3.40;;
10489;SDS011;35569;48.402;10.670;2023-01-29T00:24:20;3.30;;;3.20;;
10489;SDS011;35569;48.402;10.670;2023-01-29T00:25:16;3.47;;;3.38;;
10489;SDS011;35569;48.402;10.670;2023-01-29T00:26:08;3.35;;;3.25;;
10489;SDS011;35569;48.402;10.670;2023-01-29T00:27:07;3.83;;;3.72;;
10489;SDS011;35569;48.402;10.670;2023-01-29T00:28:00;3.87;;;3.77;;
10489;SDS011;35569;48.402;10.670;2023-01-29T00:28:55;3.70;;;3.50;;
10489;SDS011;35569;48.402;10.670;2023-01-29T00:29:48;3.57;;;3.40;;
10489;SDS011;35569;48.402;10.670;2023-01-29T00:31:05;3.37;;;3.27;;
10489;SDS011;35569;48.402;10.670;2023-01-29T00:31:58;3.50;;;3.40;;
10489;SDS011;35569;48.402;10.670;2023-01-29T00:32:54;3.53;;;3.43;;
10489;SDS011;35569;48.402;10.670;2023-01-29T00:33:46;3.58;;;3.47;;
10489;SDS011;35569;48.402;10.670;2023-01-29T00:34:45;3.35;;;3.25;;
10489;SDS011;35569;48.402;10.670;2023-01-29T00:35:40;3.40;;;3.20;;
10489;SDS011;35569;48.402;10.670;2023-01-29T00:36:35;4.20;;;4.00;;
10489;SDS011;35569;48.402;10.670;2023-01-29T00:37:28;3.78;;;3.65;;
10489;SDS011;35569;48.402;10.670;2023-01-29T00:38:23;3.92;;;3.72;;
10489;SDS011;35569;48.402;10.670;2023-01-29T00:39:16;3.78;;;3.67;;
10489;SDS011;35569;48.402;10.670;2023-01-29T00:40:27;3.92;;;3.83;;
10489;SDS011;35569;48.402;10.670;2023-01-29T00:41:39;3.88;;;3.67;;
10489;SDS011;35569;48.402;10.670;2023-01-29T00:42:47;3.70;;;3.60;;
10489;SDS011;35569;48.402;10.670;2023-01-29T00:43:56;3.47;;;3.37;;
10489;SDS011;35569;48.402;10.670;2023-01-29T00:45:04;3.50;;;3.40;;
10489;SDS011;35569;48.402;10.670;2023-01-29T00:46:00;3.90;;;3.70;;
10489;SDS011;35569;48.402;10.670;2023-01-29T00:46:52;3.90;;;3.70;;
10489;SDS011;35569;48.402;10.670;2023-01-29T00:47:49;3.10;;;3.00;;
10489;SDS011;35569;48.402;10.670;2023-01-29T00:48:41;3.45;;;3.35;;
10489;SDS011;35569;48.402;10.670;2023-01-29T00:49:36;3.63;;;3.53;;
10489;SDS011;35569;48.402;10.670;2023-01-29T00:50:32;3.10;;;3.00;;
10489;SDS011;35569;48.402;10.670;2023-01-29T00:51:27;3.50;;;3.40;;
10489;SDS011;35569;48.402;10.670;2023-01-29T00:52:19;3.93;;;3.77;;
10489;SDS011;35569;48.402;10.670;2023-01-29T00:53:15;3.60;;;3.50;;
10489;SDS011;35569;48.402;10.670;2023-01-29T00:54:10;4.15;;;3.72;;
10489;SDS011;35569;48.402;10.670;2023-01-29T00:55:04;3.55;;;3.45;;
10489;SDS011;35569;48.402;10.670;2023-01-29T00:56:00;3.53;;;3.43;;
10489;SDS011;35569;48.402;10.670;2023-01-29T00:56:53;3.38;;;3.28;;
10489;SDS011;35569;48.402;10.670;2023-01-29T00:57:48;3.90;;;3.72;;
10489;SDS011;35569;48.402;10.670;2023-01-29T00:58:40;3.70;;;3.60;;
10489;SDS011;35569;48.402;10.670;2023-01-29T00:59:36;3.40;;;3.30;;
10489;SDS011;35569;48.402;10.670;2023-01-29T01:00:28;3.83;;;3.72;;
10489;SDS011;35569;48.402;10.670;2023-01-29T01:01:24;3.65;;;3.55;;
10489;SDS011;35569;48.402;10.670;2023-01-29T01:02:31;4.63;;;4.43;;
10489;SDS011;35569;48.402;10.670;2023-01-29T01:03:39;4.13;;;3.92;;
10489;SDS011;35569;48.402;10.670;2023-01-29T01:04:33;4.05;;;3.85;;
10489;SDS011;35569;48.402;10.670;2023-01-29T01:05:28;3.97;;;3.85;;
10489;SDS011;35569;48.402;10.670;2023-01-29T01:06:24;4.50;;;4.10;;
10489;SDS011;35569;48.402;10.670;2023-01-29T01:07:20;3.90;;;3.80;;
10489;SDS011;35569;48.402;10.670;2023-01-29T01:08:14;4.63;;;4.43;;
10489;SDS011;35569;48.402;10.670;2023-01-29T01:09:22;4.05;;;3.95;;
10489;SDS011;35569;48.402;10.670;2023-01-29T01:10:30;4.40;;;4.20;;
10489;SDS011;35569;48.402;10.670;2023-01-29T01:11:28;3.80;;;3.65;;
10489;SDS011;35569;48.402;10.670;2023-01-29T01:12:21;3.80;;;3.70;;
10489;SDS011;35569;48.402;10.670;2023-01-29T01:13:16;3.70;;;3.60;;
10489;SDS011;35569;48.402;10.670;2023-01-29T01:14:11;3.80;;;3.70;;
10489;SDS011;35569;48.402;10.670;2023-01-29T01:15:06;4.53;;;4.40;;
10489;SDS011;35569;48.402;10.670;2023-01-29T01:16:07;4.13;;;3.90;;
10489;SDS011;35569;48.402;10.670;2023-01-29T01:17:00;4.30;;;4.10;;
10489;SDS011;35569;48.402;10.670;2023-01-29T01:17:56;4.70;;;4.50;;
10489;SDS011;35569;48.402;10.670;2023-01-29T01:18:50;4.32;;;4.13;;
10489;SDS011;35569;48.402;10.670;2023-01-29T01:19:45;5.40;;;5.00;;
10489;SDS011;35569;48.402;10.670;2023-01-29T01:20:38;4.47;;;4.18;;
10489;SDS011;35569;48.402;10.670;2023-01-29T01:21:36;4.30;;;4.10;;
10489;SDS011;35569;48.402;10.670;2023-01-29T01:22:28;4.00;;;3.90;;
10489;SDS011;35569;48.402;10.670;2023-01-29T01:23:24;3.83;;;3.67;;
10489;SDS011;35569;48.402;10.670;2023-01-29T01:24:16;3.97;;;3.87;;
10489;SDS011;35569;48.402;10.670;2023-01-29T01:25:12;4.10;;;3.90;;
10489;SDS011;35569;48.402;10.670;2023-01-29T01:26:07;4.53;;;4.32;;
10489;SDS011;35569;48.402;10.670;2023-01-29T01:27:03;3.75;;;3.65;;
10489;SDS011;35569;48.402;10.670;2023-01-29T01:27:56;5.10;;;4.60;;
10489;SDS011;35569;48.402;10.670;2023-01-29T01:28:52;4.57;;;4.37;;
10489;SDS011;35569;48.402;10.670;2023-01-29T01:29:44;4.27;;;4.07;;
10489;SDS011;35569;48.402;10.670;2023-01-29T01:30:40;4.43;;;4.25;;
10489;SDS011;35569;48.402;10.670;2023-01-29T01:31:33;4.28;;;4.07;;
10489;SDS011;35569;48.402;10.670;2023-01-29T01:32:28;4.13;;;3.95;;
10489;SDS011;35569;48.402;10.670;2023-01-29T01:33:21;4.60;;;4.30;;
10489;SDS011;35569;48.402;10.670;2023-01-29T01:34:16;4.13;;;3.92;;
10489;SDS011;35569;48.402;10.670;2023-01-29T01:35:09;3.92;;;3.83;;
10489;SDS011;35569;48.402;10.670;2023-01-29T01:36:06;3.92;;;3.83;;
10489;SDS011;35569;48.402;10.670;2023-01-29T01:37:03;4.00;;;3.90;;
10489;SDS011;35569;48.402;10.670;2023-01-29T01:37:58;4.03;;;3.93;;
10489;SDS011;35569;48.402;10.670;2023-01-29T01:38:51;4.23;;;4.13;;
10489;SDS011;35569;48.402;10.670;2023-01-29T01:39:46;4.10;;;3.90;;
10489;SDS011;35569;48.402;10.670;2023-01-29T01:40:42;4.03;;;3.92;;
10489;SDS011;35569;48.402;10.670;2023-01-29T01:41:38;4.40;;;4.30;;
10489;SDS011;35569;48.402;10.670;2023-01-29T01:42:31;4.20;;;4.03;;
10489;SDS011;35569;48.402;10.670;2023-01-29T01:43:23;4.00;;;3.90;;
10489;SDS011;35569;48.402;10.670;2023-01-29T01:45:41;4.45;;;4.35;;
10489;SDS011;35569;48.402;10.670;2023-01-29T01:46:38;4.40;;;4.30;;
10489;SDS011;35569;48.402;10.670;2023-01-29T01:47:32;4.57;;;4.23;;
10489;SDS011;35569;48.402;10.670;2023-01-29T01:48:29;4.10;;;4.00;;
10489;SDS011;35569;48.402;10.670;2023-01-29T01:49:22;4.40;;;4.30;;
10489;SDS011;35569;48.402;10.670;2023-01-29T01:50:17;4.23;;;4.07;;
10489;SDS011;35569;48.402;10.670;2023-01-29T01:51:14;4.37;;;4.27;;
10489;SDS011;35569;48.402;10.670;2023-01-29T01:52:12;4.67;;;4.57;;
10489;SDS011;35569;48.402;10.670;2023-01-29T01:53:08;4.43;;;4.25;;
10489;SDS011;35569;48.402;10.670;2023-01-29T01:54:05;4.28;;;4.18;;
10489;SDS011;35569;48.402;10.670;2023-01-29T01:54:59;4.30;;;4.20;;
10489;SDS011;35569;48.402;10.670;2023-01-29T01:55:55;4.03;;;3.93;;
10489;SDS011;35569;48.402;10.670;2023-01-29T01:56:51;4.40;;;4.20;;
10489;SDS011;35569;48.402;10.670;2023-01-29T01:57:56;4.47;;;4.30;;
10489;SDS011;35569;48.402;10.670;2023-01-29T01:58:51;4.77;;;4.37;;
10489;SDS011;35569;48.402;10.670;2023-01-29T01:59:49;4.20;;;4.10;;
10489;SDS011;35569;48.402;10.670;2023-01-29T02:00:44;4.50;;;4.40;;
10489;SDS011;35569;48.402;10.670;2023-01-29T02:01:40;9.45;;;5.68;;
10489;SDS011;35569;48.402;10.670;2023-01-29T02:02:35;4.90;;;4.57;;
10489;SDS011;35569;48.402;10.670;2023-01-29T02:03:45;5.20;;;4.90;;
10489;SDS011;35569;48.402;10.670;2023-01-29T02:04:55;7.00;;;6.40;;
10489;SDS011;35569;48.402;10.670;2023-01-29T02:06:03;5.50;;;5.20;;
10489;SDS011;35569;48.402;10.670;2023-01-29T02:07:14;4.60;;;4.45;;
10489;SDS011;35569;48.402;10.670;2023-01-29T02:08:23;4.72;;;4.40;;
10489;SDS011;35569;48.402;10.670;2023-01-29T02:09:36;4.60;;;4.40;;
10489;SDS011;35569;48.402;10.670;2023-01-29T02:10:34;4.30;;;4.20;;
10489;SDS011;35569;48.402;10.670;2023-01-29T02:11:29;4.60;;;4.43;;
10489;SDS011;35569;48.402;10.670;2023-01-29T02:12:24;5.10;;;4.90;;
10489;SDS011;35569;48.402;10.670;2023-01-29T02:13:20;5.05;;;4.85;;
10489;SDS011;35569;48.402;10.670;2023-01-29T02:14:15;4.82;;;4.63;;
10489;SDS011;35569;48.402;10.670;2023-01-29T02:15:09;5.10;;;4.90;;
10489;SDS011;35569;48.402;10.670;2023-01-29T02:16:05;5.20;;;5.00;;
10489;SDS011;35569;48.402;10.670;2023-01-29T02:16:58;4.23;;;4.13;;
10489;SDS011;35569;48.402;10.670;2023-01-29T02:17:54;4.55;;;4.45;;
10489;SDS011;35569;48.402;10.670;2023-01-29T02:18:47;4.40;;;4.27;;
10489;SDS011;35569;48.402;10.670;2023-01-29T02:19:45;4.43;;;4.23;;
10489;SDS011;35569;48.402;10.670;2023-01-29T02:20:40;4.32;;;4.22;;
10489;SDS011;35569;48.402;10.670;2023-01-29T02:21:49;4.60;;;4.50;;
10489;SDS011;35569;48.402;10.670;2023-01-29T02:23:03;4.05;;;3.95;;
10489;SDS011;35569;48.402;10.670;2023-01-29T02:24:10;4.63;;;4.45;;
10489;SDS011;35569;48.402;10.670;2023-01-29T02:25:22;4.57;;;4.40;;
10489;SDS011;35569;48.402;10.670;2023-01-29T02:26:45;4.40;;;4.30;;
10489;SDS011;35569;48.402;10.670;2023-01-29T02:29:11;4.43;;;4.33;;
10489;SDS011;35569;48.402;10.670;2023-01-29T02:30:19;4.32;;;4.22;;
10489;SDS011;35569;48.402;10.670;2023-01-29T02:31:20;4.78;;;4.57;;
10489;SDS011;35569;48.402;10.670;2023-01-29T02:32:19;4.50;;;4.35;;
10489;SDS011;35569;48.402;10.670;2023-01-29T02:33:20;4.72;;;4.63;;
10489;SDS011;35569;48.402;10.670;2023-01-29T02:34:21;4.13;;;4.00;;
10489;SDS011;35569;48.402;10.670;2023-01-29T02:35:24;4.30;;;4.20;;
10489;SDS011;35569;48.402;10.670;2023-01-29T02:36:23;4.40;;;4.30;;
10489;SDS011;35569;48.402;10.670;2023-01-29T02:37:24;4.25;;;4.15;;
10489;SDS011;35569;48.402;10.670;2023-01-29T02:38:23;4.50;;;4.20;;
10489;SDS011;35569;48.402;10.670;2023-01-29T02:39:25;4.80;;;4.60;;
10489;SDS011;35569;48.402;10.670;2023-01-29T02:40:22;4.40;;;4.30;;
10489;SDS011;35569;48.402;10.670;2023-01-29T02:41:24;4.45;;;4.25;;
10489;SDS011;35569;48.402;10.670;2023-01-29T02:42:21;5.45;;;5.18;;
10489;SDS011;35569;48.402;10.670;2023-01-29T02:43:28;6.10;;;5.70;;
10489;SDS011;35569;48.402;10.670;2023-01-29T02:44:27;4.85;;;4.55;;
10489;SDS011;35569;48.402;10.670;2023-01-29T02:45:28;5.55;;;5.18;;
10489;SDS011;35569;48.402;10.670;2023-01-29T02:46:26;4.70;;;4.60;;
10489;SDS011;35569;48.402;10.670;2023-01-29T02:47:29;4.78;;;4.68;;
10489;SDS011;35569;48.402;10.670;2023-01-29T02:48:24;4.97;;;4.78;;
10489;SDS011;35569;48.402;10.670;2023-01-29T02:49:37;4.72;;;4.53;;
10489;SDS011;35569;48.402;10.670;2023-01-29T02:50:36;4.07;;;3.97;;
10489;SDS011;35569;48.402;10.670;2023-01-29T02:51:35;4.80;;;4.60;;
10489;SDS011;35569;48.402;10.670;2023-01-29T02:52:31;4.35;;;4.25;;
10489;SDS011;35569;48.402;10.670;2023-01-29T02:53:31;4.55;;;4.30;;
10489;SDS011;35569;48.402;10.670;2023-01-29T02:54:30;4.40;;;4.10;;
10489;SDS011;35569;48.402;10.670;2023-01-29T02:55:29;4.95;;;4.75;;
10489;SDS011;35569;48.402;10.670;2023-01-29T02:56:26;5.85;;;5.45;;
10489;SDS011;35569;48.402;10.670;2023-01-29T02:57:26;4.70;;;4.60;;
10489;SDS011;35569;48.402;10.670;2023-01-29T02:58:23;5.07;;;4.88;;
10489;SDS011;35569;48.402;10.670;2023-01-29T02:59:22;4.30;;;4.20;;
10489;SDS011;35569;48.402;10.670;2023-01-29T03:00:21;4.20;;;4.05;;
10489;SDS011;35569;48.402;10.670;2023-01-29T03:01:19;4.45;;;4.35;;
10489;SDS011;35569;48.402;10.670;2023-01-29T03:02:15;6.35;;;6.00;;
10489;SDS011;35569;48.402;10.670;2023-01-29T03:03:15;5.82;;;5.50;;
10489;SDS011;35569;48.402;10.670;2023-01-29T03:04:10;6.28;;;5.88;;
10489;SDS011;35569;48.402;10.670;2023-01-29T03:05:07;6.40;;;6.03;;
10489;SDS011;35569;48.402;10.670;2023-01-29T03:06:04;6.60;;;6.10;;
10489;SDS011;35569;48.402;10.670;2023-01-29T03:07:04;6.60;;;6.05;;
10489;SDS011;35569;48.402;10.670;2023-01-29T03:08:00;5.65;;;5.35;;
10489;SDS011;35569;48.402;10.670;2023-01-29T03:09:00;5.68;;;5.38;;
10489;SDS011;35569;48.402;10.670;2023-01-29T03:09:55;5.35;;;5.05;;
10489;SDS011;35569;48.402;10.670;2023-01-29T03:10:52;4.93;;;4.72;;
10489;SDS011;35569;48.402;10.670;2023-01-29T03:11:48;5.70;;;5.30;;
10489;SDS011;35569;48.402;10.670;2023-01-29T03:12:50;5.45;;;5.15;;
10489;SDS011;35569;48.402;10.670;2023-01-29T03:13:47;4.90;;;4.70;;
10489;SDS011;35569;48.402;10.670;2023-01-29T03:14:49;4.97;;;4.78;;
10489;SDS011;35569;48.402;10.670;2023-01-29T03:15:58;4.90;;;4.70;;
10489;SDS011;35569;48.402;10.670;2023-01-29T03:17:04;4.95;;;4.65;;
10489;SDS011;35569;48.402;10.670;2023-01-29T03:18:01;5.03;;;4.83;;
10489;SDS011;35569;48.402;10.670;2023-01-29T03:19:00;5.85;;;5.45;;
10489;SDS011;35569;48.402;10.670;2023-01-29T03:19:56;4.40;;;4.30;;
10489;SDS011;35569;48.402;10.670;2023-01-29T03:20:53;4.82;;;4.53;;
10489;SDS011;35569;48.402;10.670;2023-01-29T03:21:50;5.70;;;5.40;;
10489;SDS011;35569;48.402;10.670;2023-01-29T03:22:52;4.93;;;4.72;;
10489;SDS011;35569;48.402;10.670;2023-01-29T03:23:49;5.00;;;4.80;;
10489;SDS011;35569;48.402;10.670;2023-01-29T03:24:57;4.65;;;4.47;;
10489;SDS011;35569;48.402;10.670;2023-01-29T03:26:09;4.93;;;4.75;;
10489;SDS011;35569;48.402;10.670;2023-01-29T03:27:19;4.97;;;4.75;;
10489;SDS011;35569;48.402;10.670;2023-01-29T03:28:29;4.90;;;4.70;;
10489;SDS011;35569;48.402;10.670;2023-01-29T03:29:37;5.15;;;4.88;;
10489;SDS011;35569;48.402;10.670;2023-01-29T03:30:54;5.30;;;5.07;;
10489;SDS011;35569;48.402;10.670;2023-01-29T03:32:07;5.63;;;5.20;;
10489;SDS011;35569;48.402;10.670;2023-01-29T03:33:03;7.05;;;6.55;;
10489;SDS011;35569;48.402;10.670;2023-01-29T03:33:58;7.55;;;6.95;;
10489;SDS011;35569;48.402;10.670;2023-01-29T03:34:56;6.80;;;6.30;;
10489;SDS011;35569;48.402;10.670;2023-01-29T03:35:52;5.40;;;5.20;;
10489;SDS011;35569;48.402;10.670;2023-01-29T03:36:53;5.28;;;5.07;;
10489;SDS011;35569;48.402;10.670;2023-01-29T03:37:50;5.38;;;5.18;;
10489;SDS011;35569;48.402;10.670;2023-01-29T03:38:43;4.10;;;4.00;;
10489;SDS011;35569;48.402;10.670;2023-01-29T03:39:38;4.53;;;4.38;;
10489;SDS011;35569;48.402;10.670;2023-01-29T03:40:34;5.47;;;5.18;;
10489;SDS011;35569;48.402;10.670;2023-01-29T03:41:32;4.43;;;4.32;;
10489;SDS011;35569;48.402;10.670;2023-01-29T03:42:31;4.82;;;4.63;;
10489;SDS011;35569;48.402;10.670;2023-01-29T03:43:35;4.72;;;4.53;;
10489;SDS011;35569;48.402;10.670;2023-01-29T03:44:32;5.32;;;5.03;;
10489;SDS011;35569;48.402;10.670;2023-01-29T03:45:36;4.75;;;4.55;;
10489;SDS011;35569;48.402;10.670;2023-01-29T03:46:37;4.65;;;4.55;;
10489;SDS011;35569;48.402;10.670;2023-01-29T03:47:39;4.60;;;4.43;;
10489;SDS011;35569;48.402;10.670;2023-01-29T03:48:35;4.60;;;4.43;;
10489;SDS011;35569;48.402;10.670;2023-01-29T03:49:33;4.40;;;4.28;;
10489;SDS011;35569;48.402;10.670;2023-01-29T03:50:36;4.90;;;4.80;;
10489;SDS011;35569;48.402;10.670;2023-01-29T03:51:35;5.30;;;5.00;;
10489;SDS011;35569;48.402;10.670;2023-01-29T03:52:34;4.90;;;4.70;;
10489;SDS011;35569;48.402;10.670;2023-01-29T03:53:37;4.22;;;4.13;;
10489;SDS011;35569;48.402;10.670;2023-01-29T03:54:38;5.05;;;4.85;;
10489;SDS011;35569;48.402;10.670;2023-01-29T03:55:40;5.07;;;4.88;;
10489;SDS011;35569;48.402;10.670;2023-01-29T03:56:40;4.50;;;4.40;;
10489;SDS011;35569;48.402;10.670;2023-01-29T03:57:43;4.90;;;4.70;;
10489;SDS011;35569;48.402;10.670;2023-01-29T03:58:41;4.90;;;4.80;;
10489;SDS011;35569;48.402;10.670;2023-01-29T03:59:44;5.35;;;5.07;;
10489;SDS011;35569;48.402;10.670;2023-01-29T04:01:10;5.10;;;5.00;;
10489;SDS011;35569;48.402;10.670;2023-01-29T04:02:12;4.43;;;4.30;;
10489;SDS011;35569;48.402;10.670;2023-01-29T04:03:07;4.88;;;4.68;;
10489;SDS011;35569;48.402;10.670;2023-01-29T04:04:08;4.95;;;4.70;;
10489;SDS011;35569;48.402;10.670;2023-01-29T04:05:04;5.05;;;4.85;;
10489;SDS011;35569;48.402;10.670;2023-01-29T04:06:11;4.65;;;4.55;;
10489;SDS011;35569;48.402;10.670;2023-01-29T04:07:17;4.53;;;4.43;;
10489;SDS011;35569;48.402;10.670;2023-01-29T04:08:25;5.03;;;4.82;;
10489;SDS011;35569;48.402;10.670;2023-01-29T04:09:22;4.30;;;4.20;;
10489;SDS011;35569;48.402;10.670;2023-01-29T04:10:22;4.50;;;4.30;;
10489;SDS011;35569;48.402;10.670;2023-01-29T04:11:17;4.97;;;4.72;;
10489;SDS011;35569;48.402;10.670;2023-01-29T04:12:15;4.90;;;4.75;;
10489;SDS011;35569;48.402;10.670;2023-01-29T04:13:11;4.57;;;4.47;;
10489;SDS011;35569;48.402;10.670;2023-01-29T04:14:09;4.93;;;4.72;;
10489;SDS011;35569;48.402;10.670;2023-01-29T04:15:01;4.97;;;4.88;;
10489;SDS011;35569;48.402;10.670;2023-01-29T04:16:00;4.43;;;4.32;;
10489;SDS011;35569;48.402;10.670;2023-01-29T04:17:26;4.97;;;4.78;;
10489;SDS011;35569;48.402;10.670;2023-01-29T04:18:33;4.22;;;4.13;;
10489;SDS011;35569;48.402;10.670;2023-01-29T04:19:30;4.25;;;4.15;;
10489;SDS011;35569;48.402;10.670;2023-01-29T04:20:25;4.78;;;4.68;;
10489;SDS011;35569;48.402;10.670;2023-01-29T04:21:18;3.88;;;3.78;;
10489;SDS011;35569;48.402;10.670;2023-01-29T04:22:16;4.10;;;4.00;;
10489;SDS011;35569;48.402;10.670;2023-01-29T04:23:18;4.65;;;4.45;;
10489;SDS011;35569;48.402;10.670;2023-01-29T04:24:16;4.33;;;4.23;;
10489;SDS011;35569;48.402;10.670;2023-01-29T04:25:09;4.63;;;4.43;;
10489;SDS011;35569;48.402;10.670;2023-01-29T04:26:12;4.80;;;4.70;;
10489;SDS011;35569;48.402;10.670;2023-01-29T04:27:17;4.35;;;4.25;;
10489;SDS011;35569;48.402;10.670;2023-01-29T04:28:18;4.45;;;4.35;;
10489;SDS011;35569;48.402;10.670;2023-01-29T04:29:15;4.35;;;4.25;;
10489;SDS011;35569;48.402;10.670;2023-01-29T04:30:25;4.10;;;4.00;;
10489;SDS011;35569;48.402;10.670;2023-01-29T04:31:27;4.55;;;4.35;;
10489;SDS011;35569;48.402;10.670;2023-01-29T04:32:31;4.13;;;4.00;;
10489;SDS011;35569;48.402;10.670;2023-01-29T04:33:33;4.47;;;4.28;;
10489;SDS011;35569;48.402;10.670;2023-01-29T04:34:32;3.95;;;3.85;;
10489;SDS011;35569;48.402;10.670;2023-01-29T04:35:29;4.90;;;4.70;;
10489;SDS011;35569;48.402;10.670;2023-01-29T04:36:27;4.50;;;4.35;;
10489;SDS011;35569;48.402;10.670;2023-01-29T04:37:30;4.10;;;4.00;;
10489;SDS011;35569;48.402;10.670;2023-01-29T04:38:31;4.15;;;3.95;;
10489;SDS011;35569;48.402;10.670;2023-01-29T04:39:33;3.85;;;3.75;;
10489;SDS011;35569;48.402;10.670;2023-01-29T04:40:30;4.00;;;3.90;;
10489;SDS011;35569;48.402;10.670;2023-01-29T04:41:30;4.15;;;4.05;;
10489;SDS011;35569;48.402;10.670;2023-01-29T04:42:26;4.10;;;4.00;;
10489;SDS011;35569;48.402;10.670;2023-01-29T04:43:25;4.43;;;4.22;;
10489;SDS011;35569;48.402;10.670;2023-01-29T04:44:19;3.92;;;3.83;;
10489;SDS011;35569;48.402;10.670;2023-01-29T04:45:18;4.18;;;4.07;;
10489;SDS011;35569;48.402;10.670;2023-01-29T04:46:14;4.40;;;4.20;;
10489;SDS011;35569;48.402;10.670;2023-01-29T04:47:16;4.40;;;4.20;;
10489;SDS011;35569;48.402;10.670;2023-01-29T04:48:17;3.95;;;3.85;;
10489;SDS011;35569;48.402;10.670;2023-01-29T04:49:15;4.30;;;4.20;;
10489;SDS011;35569;48.402;10.670;2023-01-29T04:50:12;4.55;;;4.35;;
10489;SDS011;35569;48.402;10.670;2023-01-29T04:51:11;3.80;;;3.70;;
10489;SDS011;35569;48.402;10.670;2023-01-29T04:52:11;4.18;;;4.07;;
10489;SDS011;35569;48.402;10.670;2023-01-29T04:53:11;3.75;;;3.65;;
10489;SDS011;35569;48.402;10.670;2023-01-29T04:54:08;3.88;;;3.78;;
10489;SDS011;35569;48.402;10.670;2023-01-29T04:55:06;3.50;;;3.40;;
10489;SDS011;35569;48.402;10.670;2023-01-29T04:56:04;4.03;;;3.83;;
10489;SDS011;35569;48.402;10.670;2023-01-29T04:57:04;4.30;;;4.20;;
10489;SDS011;35569;48.402;10.670;2023-01-29T04:58:02;3.95;;;3.75;;
10489;SDS011;35569;48.402;10.670;2023-01-29T04:59:00;3.92;;;3.83;;
10489;SDS011;35569;48.402;10.670;2023-01-29T04:59:56;3.97;;;3.85;;
10489;SDS011;35569;48.402;10.670;2023-01-29T05:00:58;3.83;;;3.73;;
10489;SDS011;35569;48.402;10.670;2023-01-29T05:01:51;3.80;;;3.70;;
10489;SDS011;35569;48.402;10.670;2023-01-29T05:02:47;3.80;;;3.70;;
10489;SDS011;35569;48.402;10.670;2023-01-29T05:03:44;3.70;;;3.60;;
10489;SDS011;35569;48.402;10.670;2023-01-29T05:04:42;4.20;;;4.05;;
10489;SDS011;35569;48.402;10.670;2023-01-29T05:05:36;4.00;;;3.90;;
10489;SDS011;35569;48.402;10.670;2023-01-29T05:06:34;3.85;;;3.75;;
10489;SDS011;35569;48.402;10.670;2023-01-29T05:07:27;3.72;;;3.63;;
10489;SDS011;35569;48.402;10.670;2023-01-29T05:08:23;4.32;;;4.13;;
10489;SDS011;35569;48.402;10.670;2023-01-29T05:09:16;4.05;;;3.85;;
10489;SDS011;35569;48.402;10.670;2023-01-29T05:10:12;4.00;;;3.80;;
10489;SDS011;35569;48.402;10.670;2023-01-29T05:11:06;3.80;;;3.70;;
10489;SDS011;35569;48.402;10.670;2023-01-29T05:12:02;4.00;;;3.90;;
10489;SDS011;35569;48.402;10.670;2023-01-29T05:12:57;4.00;;;3.90;;
10489;SDS011;35569;48.402;10.670;2023-01-29T05:13:54;3.90;;;3.80;;
10489;SDS011;35569;48.402;10.670;2023-01-29T05:14:47;4.15;;;4.05;;
10489;SDS011;35569;48.402;10.670;2023-01-29T05:15:43;3.70;;;3.60;;
10489;SDS011;35569;48.402;10.670;2023-01-29T05:16:39;3.83;;;3.72;;
10489;SDS011;35569;48.402;10.670;2023-01-29T05:17:36;4.00;;;3.80;;
10489;SDS011;35569;48.402;10.670;2023-01-29T05:18:29;4.05;;;3.95;;
10489;SDS011;35569;48.402;10.670;2023-01-29T05:19:27;3.50;;;3.40;;
10489;SDS011;35569;48.402;10.670;2023-01-29T05:20:20;3.80;;;3.70;;
10489;SDS011;35569;48.402;10.670;2023-01-29T05:21:15;4.07;;;3.97;;
10489;SDS011;35569;48.402;10.670;2023-01-29T05:22:08;3.85;;;3.75;;
10489;SDS011;35569;48.402;10.670;2023-01-29T05:23:07;3.57;;;3.47;;
10489;SDS011;35569;48.402;10.670;2023-01-29T05:24:10;3.92;;;3.83;;
10489;SDS011;35569;48.402;10.670;2023-01-29T05:25:11;3.85;;;3.75;;
10489;SDS011;35569;48.402;10.670;2023-01-29T05:26:11;3.85;;;3.75;;
10489;SDS011;35569;48.402;10.670;2023-01-29T05:27:20;4.47;;;4.28;;
10489;SDS011;35569;48.402;10.670;2023-01-29T05:28:29;3.75;;;3.65;;
10489;SDS011;35569;48.402;10.670;2023-01-29T05:29:24;3.75;;;3.65;;
10489;SDS011;35569;48.402;10.670;2023-01-29T05:30:17;4.18;;;4.07;;
10489;SDS011;35569;48.402;10.670;2023-01-29T05:31:10;3.70;;;3.60;;
10489;SDS011;35569;48.402;10.670;2023-01-29T05:32:06;3.70;;;3.60;;
10489;SDS011;35569;48.402;10.670;2023-01-29T05:32:58;3.67;;;3.57;;
10489;SDS011;35569;48.402;10.670;2023-01-29T05:33:53;4.05;;;3.95;;
10489;SDS011;35569;48.402;10.670;2023-01-29T05:34:49;4.03;;;3.92;;
10489;SDS011;35569;48.402;10.670;2023-01-29T05:35:44;4.20;;;4.10;;
10489;SDS011;35569;48.402;10.670;2023-01-29T05:36:38;3.70;;;3.60;;
10489;SDS011;35569;48.402;10.670;2023-01-29T05:37:33;3.42;;;3.33;;
10489;SDS011;35569;48.402;10.670;2023-01-29T05:38:25;3.67;;;3.58;;
10489;SDS011;35569;48.402;10.670;2023-01-29T05:39:21;3.90;;;3.80;;
10489;SDS011;35569;48.402;10.670;2023-01-29T05:40:13;3.95;;;3.85;;
10489;SDS011;35569;48.402;10.670;2023-01-29T05:41:09;4.07;;;3.90;;
10489;SDS011;35569;48.402;10.670;2023-01-29T05:42:02;3.95;;;3.83;;
10489;SDS011;35569;48.402;10.670;2023-01-29T05:42:57;3.90;;;3.80;;
10489;SDS011;35569;48.402;10.670;2023-01-29T05:43:50;3.80;;;3.70;;
10489;SDS011;35569;48.402;10.670;2023-01-29T05:44:45;4.20;;;4.10;;
10489;SDS011;35569;48.402;10.670;2023-01-29T05:45:38;3.70;;;3.60;;
10489;SDS011;35569;48.402;10.670;2023-01-29T05:46:33;4.03;;;3.92;;
10489;SDS011;35569;48.402;10.670;2023-01-29T05:47:26;3.83;;;3.72;;
10489;SDS011;35569;48.402;10.670;2023-01-29T05:48:21;3.65;;;3.55;;